sensor_id;sensor_type;location;lat;lon;timestamp;pressure;altitude;pressure_sealevel;temperature;humidity
65557;BME280;52200;53.490;14.376;2024-01-06T00:01:21;100643.84;;;-2.12;90.45
65557;BME280;52200;53.490;14.376;2024-01-06T00:03:47;100642.38;;;-2.03;90.86
65557;BME280;52200;53.490;14.376;2024-01-06T00:06:13;100654.84;;;-2.02;91.35
65557;BME280;52200;53.490;14.376;2024-01-06T00:08:39;100660.53;;;-2.07;91.07
65557;BME280;52200;53.490;14.376;2024-01-06T00:11:04;100665.38;;;-2.14;91.07
65557;BME280;52200;53.490;14.376;2024-01-06T00:13:30;100656.47;;;-2.04;90.94
65557;BME280;52200;53.490;14.376;2024-01-06T00:15:55;100654.97;;;-1.96;90.32
65557;BME280;52200;53.490;14.376;2024-01-06T00:18:21;100658.81;;;-2.10;90.96
65557;BME280;52200;53.490;14.376;2024-01-06T00:20:46;100664.28;;;-2.23;90.81
65557;BME280;52200;53.490;14.376;2024-01-06T00:23:12;100674.69;;;-2.05;91.09
65557;BME280;52200;53.490;14.376;2024-01-06T00:25:37;100669.72;;;-2.05;91.12
65557;BME280;52200;53.490;14.376;2024-01-06T00:28:03;100677.09;;;-2.08;90.79
65557;BME280;52200;53.490;14.376;2024-01-06T00:30:28;100677.94;;;-2.09;90.42
65557;BME280;52200;53.490;14.376;2024-01-06T00:32:54;100683.19;;;-1.97;90.23
65557;BME280;52200;53.490;14.376;2024-01-06T00:35:19;100679.34;;;-1.84;90.33
65557;BME280;52200;53.490;14.376;2024-01-06T00:37:44;100677.38;;;-1.96;89.23
65557;BME280;52200;53.490;14.376;2024-01-06T00:40:10;100674.75;;;-2.02;89.60
65557;BME280;52200;53.490;14.376;2024-01-06T00:42:36;100672.25;;;-2.02;89.12
65557;BME280;52200;53.490;14.376;2024-01-06T00:45:01;100670.59;;;-2.03;89.33
65557;BME280;52200;53.490;14.376;2024-01-06T00:47:27;100671.53;;;-1.99;89.28
65557;BME280;52200;53.490;14.376;2024-01-06T00:49:52;100670.38;;;-2.12;89.21
65557;BME280;52200;53.490;14.376;2024-01-06T00:52:18;100675.72;;;-1.97;89.19
65557;BME280;52200;53.490;14.376;2024-01-06T00:54:43;100684.72;;;-2.02;88.95
65557;BME280;52200;53.490;14.376;2024-01-06T00:57:08;100687.47;;;-1.91;89.30
65557;BME280;52200;53.490;14.376;2024-01-06T00:59:34;100682.44;;;-1.92;88.40
65557;BME280;52200;53.490;14.376;2024-01-06T01:01:59;100679.78;;;-2.00;88.38
65557;BME280;52200;53.490;14.376;2024-01-06T01:04:25;100683.13;;;-1.98;88.70
65557;BME280;52200;53.490;14.376;2024-01-06T01:06:50;100680.94;;;-2.21;88.97
65557;BME280;52200;53.490;14.376;2024-01-06T01:09:15;100681.91;;;-2.14;89.08
65557;BME280;52200;53.490;14.376;2024-01-06T01:11:41;100692.91;;;-2.06;88.96
65557;BME280;52200;53.490;14.376;2024-01-06T01:14:07;100691.19;;;-2.08;89.12
65557;BME280;52200;53.490;14.376;2024-01-06T01:16:32;100700.19;;;-2.14;88.75
65557;BME280;52200;53.490;14.376;2024-01-06T01:18:58;100696.16;;;-2.10;88.31
65557;BME280;52200;53.490;14.376;2024-01-06T01:21:24;100700.78;;;-1.89;88.41
65557;BME280;52200;53.490;14.376;2024-01-06T01:23:49;100699.69;;;-2.00;88.49
65557;BME280;52200;53.490;14.376;2024-01-06T01:26:14;100700.66;;;-1.95;88.27
65557;BME280;52200;53.490;14.376;2024-01-06T01:28:40;100712.22;;;-1.96;88.00
65557;BME280;52200;53.490;14.376;2024-01-06T01:31:05;100713.50;;;-1.78;87.94
65557;BME280;52200;53.490;14.376;2024-01-06T01:33:31;100716.34;;;-1.98;87.10
65557;BME280;52200;53.490;14.376;2024-01-06T01:35:56;100720.75;;;-1.87;87.57
65557;BME280;52200;53.490;14.376;2024-01-06T01:38:22;100714.41;;;-2.09;87.00
65557;BME280;52200;53.490;14.376;2024-01-06T01:40:47;100708.63;;;-2.08;87.88
65557;BME280;52200;53.490;14.376;2024-01-06T01:43:19;100716.34;;;-1.98;87.59
65557;BME280;52200;53.490;14.376;2024-01-06T01:45:53;100722.34;;;-1.89;87.76
65557;BME280;52200;53.490;14.376;2024-01-06T01:48:20;100730.97;;;-2.10;87.15
65557;BME280;52200;53.490;14.376;2024-01-06T01:50:47;100721.84;;;-2.09;87.67
65557;BME280;52200;53.490;14.376;2024-01-06T01:53:13;100718.34;;;-2.18;87.56
65557;BME280;52200;53.490;14.376;2024-01-06T01:55:40;100715.09;;;-2.15;87.53
65557;BME280;52200;53.490;14.376;2024-01-06T01:58:06;100719.53;;;-2.03;87.60
65557;BME280;52200;53.490;14.376;2024-01-06T02:00:32;100723.69;;;-2.02;86.83
65557;BME280;52200;53.490;14.376;2024-01-06T02:02:58;100722.94;;;-2.00;86.98
65557;BME280;52200;53.490;14.376;2024-01-06T02:05:24;100724.22;;;-2.14;86.96
65557;BME280;52200;53.490;14.376;2024-01-06T02:07:50;100725.44;;;-2.32;87.80
65557;BME280;52200;53.490;14.376;2024-01-06T02:10:17;100729.88;;;-2.21;87.78
65557;BME280;52200;53.490;14.376;2024-01-06T02:12:42;100728.22;;;-1.87;87.03
65557;BME280;52200;53.490;14.376;2024-01-06T02:15:08;100728.66;;;-2.04;87.03
65557;BME280;52200;53.490;14.376;2024-01-06T02:17:34;100727.38;;;-1.88;86.91
65557;BME280;52200;53.490;14.376;2024-01-06T02:19:59;100729.00;;;-1.88;86.37
65557;BME280;52200;53.490;14.376;2024-01-06T02:22:24;100726.69;;;-2.16;87.11
65557;BME280;52200;53.490;14.376;2024-01-06T02:24:50;100738.44;;;-2.10;87.77
65557;BME280;52200;53.490;14.376;2024-01-06T02:27:15;100748.41;;;-2.10;86.68
65557;BME280;52200;53.490;14.376;2024-01-06T02:29:41;100744.53;;;-1.99;86.67
65557;BME280;52200;53.490;14.376;2024-01-06T02:32:06;100747.16;;;-1.94;86.96
65557;BME280;52200;53.490;14.376;2024-01-06T02:34:32;100749.03;;;-1.84;86.51
65557;BME280;52200;53.490;14.376;2024-01-06T02:36:58;100745.38;;;-1.98;87.11
65557;BME280;52200;53.490;14.376;2024-01-06T02:39:23;100737.03;;;-2.00;86.99
65557;BME280;52200;53.490;14.376;2024-01-06T02:41:49;100739.06;;;-1.85;86.51
65557;BME280;52200;53.490;14.376;2024-01-06T02:44:14;100744.66;;;-1.94;86.23
65557;BME280;52200;53.490;14.376;2024-01-06T02:46:40;100733.97;;;-1.90;86.47
65557;BME280;52200;53.490;14.376;2024-01-06T02:49:06;100743.78;;;-1.95;86.45
65557;BME280;52200;53.490;14.376;2024-01-06T02:51:32;100739.63;;;-1.96;86.86
65557;BME280;52200;53.490;14.376;2024-01-06T02:53:57;100742.84;;;-2.00;86.48
65557;BME280;52200;53.490;14.376;2024-01-06T02:56:23;100751.81;;;-1.73;86.43
65557;BME280;52200;53.490;14.376;2024-01-06T02:58:48;100749.56;;;-1.96;86.47
65557;BME280;52200;53.490;14.376;2024-01-06T03:01:14;100744.22;;;-2.11;86.45
65557;BME280;52200;53.490;14.376;2024-01-06T03:03:39;100749.19;;;-2.11;87.22
65557;BME280;52200;53.490;14.376;2024-01-06T03:06:05;100738.00;;;-1.93;86.54
65557;BME280;52200;53.490;14.376;2024-01-06T03:08:30;100741.09;;;-2.04;87.12
65557;BME280;52200;53.490;14.376;2024-01-06T03:10:56;100747.97;;;-1.93;86.88
65557;BME280;52200;53.490;14.376;2024-01-06T03:13:21;100752.31;;;-1.86;86.41
65557;BME280;52200;53.490;14.376;2024-01-06T03:15:47;100749.66;;;-1.92;86.15
65557;BME280;52200;53.490;14.376;2024-01-06T03:18:12;100755.13;;;-2.06;86.71
65557;BME280;52200;53.490;14.376;2024-01-06T03:20:38;100769.44;;;-1.97;85.52
65557;BME280;52200;53.490;14.376;2024-01-06T03:23:03;100776.06;;;-1.99;86.50
65557;BME280;52200;53.490;14.376;2024-01-06T03:25:29;100778.75;;;-1.90;86.00
65557;BME280;52200;53.490;14.376;2024-01-06T03:27:54;100780.38;;;-1.92;86.08
65557;BME280;52200;53.490;14.376;2024-01-06T03:30:20;100780.59;;;-1.84;86.48
65557;BME280;52200;53.490;14.376;2024-01-06T03:32:45;100787.06;;;-1.89;86.29
65557;BME280;52200;53.490;14.376;2024-01-06T03:35:10;100792.00;;;-1.91;85.85
65557;BME280;52200;53.490;14.376;2024-01-06T03:37:36;100791.03;;;-1.98;85.95
65557;BME280;52200;53.490;14.376;2024-01-06T03:40:01;100796.00;;;-1.98;85.85
65557;BME280;52200;53.490;14.376;2024-01-06T03:42:28;100792.16;;;-1.85;85.77
65557;BME280;52200;53.490;14.376;2024-01-06T03:44:53;100794.34;;;-1.97;86.73
65557;BME280;52200;53.490;14.376;2024-01-06T03:47:19;100789.34;;;-1.99;85.65
65557;BME280;52200;53.490;14.376;2024-01-06T03:49:44;100797.25;;;-1.82;85.65
65557;BME280;52200;53.490;14.376;2024-01-06T03:52:10;100793.09;;;-1.81;85.01
65557;BME280;52200;53.490;14.376;2024-01-06T03:54:35;100800.03;;;-2.03;85.93
65557;BME280;52200;53.490;14.376;2024-01-06T03:57:00;100801.94;;;-1.92;85.66
65557;BME280;52200;53.490;14.376;2024-01-06T03:59:26;100802.06;;;-1.88;86.03
65557;BME280;52200;53.490;14.376;2024-01-06T04:01:52;100807.50;;;-2.03;85.57
65557;BME280;52200;53.490;14.376;2024-01-06T04:04:18;100807.16;;;-2.15;85.26
65557;BME280;52200;53.490;14.376;2024-01-06T04:06:43;100823.09;;;-2.08;85.35
65557;BME280;52200;53.490;14.376;2024-01-06T04:09:09;100814.69;;;-2.12;85.79
65557;BME280;52200;53.490;14.376;2024-01-06T04:11:34;100816.78;;;-1.96;85.33
65557;BME280;52200;53.490;14.376;2024-01-06T04:14:00;100811.25;;;-1.85;85.20
65557;BME280;52200;53.490;14.376;2024-01-06T04:16:26;100808.31;;;-2.02;85.92
65557;BME280;52200;53.490;14.376;2024-01-06T04:18:52;100811.06;;;-1.93;84.88
65557;BME280;52200;53.490;14.376;2024-01-06T04:21:18;100811.09;;;-1.91;85.45
65557;BME280;52200;53.490;14.376;2024-01-06T04:23:43;100818.94;;;-1.76;84.90
65557;BME280;52200;53.490;14.376;2024-01-06T04:26:09;100817.00;;;-1.88;85.21
65557;BME280;52200;53.490;14.376;2024-01-06T04:28:34;100821.66;;;-2.00;84.98
65557;BME280;52200;53.490;14.376;2024-01-06T04:31:00;100824.22;;;-1.97;85.76
65557;BME280;52200;53.490;14.376;2024-01-06T04:33:25;100816.97;;;-2.21;85.88
65557;BME280;52200;53.490;14.376;2024-01-06T04:35:50;100813.31;;;-2.33;86.74
65557;BME280;52200;53.490;14.376;2024-01-06T04:38:16;100823.94;;;-2.08;86.38
65557;BME280;52200;53.490;14.376;2024-01-06T04:40:41;100822.00;;;-2.18;87.39
65557;BME280;52200;53.490;14.376;2024-01-06T04:43:08;100833.38;;;-2.27;87.03
65557;BME280;52200;53.490;14.376;2024-01-06T04:45:33;100835.41;;;-2.13;87.91
65557;BME280;52200;53.490;14.376;2024-01-06T04:47:59;100835.19;;;-2.22;87.46
65557;BME280;52200;53.490;14.376;2024-01-06T04:50:25;100838.66;;;-2.16;88.14
65557;BME280;52200;53.490;14.376;2024-01-06T04:52:50;100843.03;;;-2.07;87.53
65557;BME280;52200;53.490;14.376;2024-01-06T04:55:16;100845.44;;;-2.12;87.46
65557;BME280;52200;53.490;14.376;2024-01-06T04:57:41;100847.44;;;-2.29;88.13
65557;BME280;52200;53.490;14.376;2024-01-06T05:00:07;100840.44;;;-2.42;89.12
65557;BME280;52200;53.490;14.376;2024-01-06T05:02:33;100854.13;;;-2.28;89.69
65557;BME280;52200;53.490;14.376;2024-01-06T05:04:59;100851.63;;;-2.28;90.07
65557;BME280;52200;53.490;14.376;2024-01-06T05:07:24;100862.88;;;-2.10;90.02
65557;BME280;52200;53.490;14.376;2024-01-06T05:09:51;100853.28;;;-2.27;89.52
65557;BME280;52200;53.490;14.376;2024-01-06T05:12:18;100848.09;;;-2.34;89.96
65557;BME280;52200;53.490;14.376;2024-01-06T05:14:43;100857.44;;;-2.27;89.99
65557;BME280;52200;53.490;14.376;2024-01-06T05:17:08;100860.75;;;-2.27;90.53
65557;BME280;52200;53.490;14.376;2024-01-06T05:19:34;100869.72;;;-2.32;90.52
65557;BME280;52200;53.490;14.376;2024-01-06T05:22:00;100869.38;;;-2.44;90.38
65557;BME280;52200;53.490;14.376;2024-01-06T05:24:25;100879.50;;;-2.38;90.63
65557;BME280;52200;53.490;14.376;2024-01-06T05:26:51;100883.41;;;-2.17;90.77
65557;BME280;52200;53.490;14.376;2024-01-06T05:29:17;100887.72;;;-2.40;90.68
65557;BME280;52200;53.490;14.376;2024-01-06T05:31:42;100875.50;;;-2.62;91.09
65557;BME280;52200;53.490;14.376;2024-01-06T05:34:08;100880.44;;;-2.34;91.80
65557;BME280;52200;53.490;14.376;2024-01-06T05:36:33;100891.50;;;-2.24;91.12
65557;BME280;52200;53.490;14.376;2024-01-06T05:38:59;100889.28;;;-2.44;91.43
65557;BME280;52200;53.490;14.376;2024-01-06T05:41:25;100887.78;;;-2.39;91.09
65557;BME280;52200;53.490;14.376;2024-01-06T05:43:51;100892.91;;;-2.33;91.13
65557;BME280;52200;53.490;14.376;2024-01-06T05:46:26;100899.63;;;-2.01;91.18
65557;BME280;52200;53.490;14.376;2024-01-06T05:48:51;100900.41;;;-2.02;90.26
65557;BME280;52200;53.490;14.376;2024-01-06T05:51:17;100901.31;;;-2.00;89.91
65557;BME280;52200;53.490;14.376;2024-01-06T05:53:42;100911.34;;;-2.28;90.34
65557;BME280;52200;53.490;14.376;2024-01-06T05:56:08;100918.22;;;-2.19;90.68
65557;BME280;52200;53.490;14.376;2024-01-06T05:58:35;100913.19;;;-2.20;90.86
65557;BME280;52200;53.490;14.376;2024-01-06T06:01:00;100916.56;;;-2.18;90.24
65557;BME280;52200;53.490;14.376;2024-01-06T06:03:25;100925.97;;;-2.37;90.57
65557;BME280;52200;53.490;14.376;2024-01-06T06:05:51;100922.16;;;-2.25;91.11
65557;BME280;52200;53.490;14.376;2024-01-06T06:08:16;100936.41;;;-2.21;90.95
65557;BME280;52200;53.490;14.376;2024-01-06T06:10:42;100928.81;;;-2.24;90.65
65557;BME280;52200;53.490;14.376;2024-01-06T06:13:24;100940.88;;;-2.09;90.83
65557;BME280;52200;53.490;14.376;2024-01-06T06:15:50;100937.84;;;-1.99;89.89
65557;BME280;52200;53.490;14.376;2024-01-06T06:18:16;100942.31;;;-2.18;90.25
65557;BME280;52200;53.490;14.376;2024-01-06T06:20:41;100950.22;;;-2.31;91.20
65557;BME280;52200;53.490;14.376;2024-01-06T06:23:09;100959.94;;;-2.10;90.95
65557;BME280;52200;53.490;14.376;2024-01-06T06:25:34;100963.88;;;-2.17;90.96
65557;BME280;52200;53.490;14.376;2024-01-06T06:28:02;100968.69;;;-2.23;90.46
65557;BME280;52200;53.490;14.376;2024-01-06T06:30:28;100968.97;;;-2.41;91.28
65557;BME280;52200;53.490;14.376;2024-01-06T06:32:54;100973.09;;;-2.41;91.84
65557;BME280;52200;53.490;14.376;2024-01-06T06:35:19;100969.97;;;-2.36;91.13
65557;BME280;52200;53.490;14.376;2024-01-06T06:37:44;100970.88;;;-2.34;91.61
65557;BME280;52200;53.490;14.376;2024-01-06T06:40:10;100973.97;;;-2.41;91.78
65557;BME280;52200;53.490;14.376;2024-01-06T06:42:36;100982.81;;;-2.49;91.63
65557;BME280;52200;53.490;14.376;2024-01-06T06:45:01;100977.81;;;-2.51;91.35
65557;BME280;52200;53.490;14.376;2024-01-06T06:47:27;100995.19;;;-2.52;91.70
65557;BME280;52200;53.490;14.376;2024-01-06T06:49:52;100996.94;;;-2.48;92.04
65557;BME280;52200;53.490;14.376;2024-01-06T06:52:18;101005.41;;;-2.43;91.94
65557;BME280;52200;53.490;14.376;2024-01-06T06:54:43;101006.16;;;-2.46;91.92
65557;BME280;52200;53.490;14.376;2024-01-06T06:57:09;101013.53;;;-2.49;91.38
65557;BME280;52200;53.490;14.376;2024-01-06T06:59:34;101015.06;;;-2.52;91.54
65557;BME280;52200;53.490;14.376;2024-01-06T07:01:59;101016.75;;;-2.51;91.62
65557;BME280;52200;53.490;14.376;2024-01-06T07:04:25;101019.28;;;-2.50;92.30
65557;BME280;52200;53.490;14.376;2024-01-06T07:06:51;101022.56;;;-2.51;92.32
65557;BME280;52200;53.490;14.376;2024-01-06T07:09:16;101024.41;;;-2.45;91.87
65557;BME280;52200;53.490;14.376;2024-01-06T07:11:42;101037.31;;;-2.30;91.42
65557;BME280;52200;53.490;14.376;2024-01-06T07:14:07;101038.69;;;-2.39;91.63
65557;BME280;52200;53.490;14.376;2024-01-06T07:16:32;101040.03;;;-2.49;91.68
65557;BME280;52200;53.490;14.376;2024-01-06T07:18:58;101044.25;;;-2.19;91.14
65557;BME280;52200;53.490;14.376;2024-01-06T07:21:23;101045.59;;;-2.31;90.77
65557;BME280;52200;53.490;14.376;2024-01-06T07:23:49;101038.72;;;-2.38;90.60
65557;BME280;52200;53.490;14.376;2024-01-06T07:26:14;101048.06;;;-2.31;90.67
65557;BME280;52200;53.490;14.376;2024-01-06T07:28:40;101050.94;;;-2.18;90.01
65557;BME280;52200;53.490;14.376;2024-01-06T07:31:05;101045.50;;;-2.34;90.20
65557;BME280;52200;53.490;14.376;2024-01-06T07:33:30;101052.31;;;-2.54;90.87
65557;BME280;52200;53.490;14.376;2024-01-06T07:35:56;101056.13;;;-2.38;90.53
65557;BME280;52200;53.490;14.376;2024-01-06T07:38:21;101062.00;;;-2.36;90.34
65557;BME280;52200;53.490;14.376;2024-01-06T07:40:47;101060.31;;;-2.37;90.50
65557;BME280;52200;53.490;14.376;2024-01-06T07:43:12;101062.59;;;-2.43;90.22
65557;BME280;52200;53.490;14.376;2024-01-06T07:45:38;101061.63;;;-2.48;90.04
65557;BME280;52200;53.490;14.376;2024-01-06T07:48:04;101074.84;;;-2.49;89.77
65557;BME280;52200;53.490;14.376;2024-01-06T07:50:29;101082.91;;;-2.56;90.32
65557;BME280;52200;53.490;14.376;2024-01-06T07:52:55;101079.97;;;-2.45;90.30
65557;BME280;52200;53.490;14.376;2024-01-06T07:55:20;101093.13;;;-2.49;89.88
65557;BME280;52200;53.490;14.376;2024-01-06T07:57:46;101086.06;;;-2.36;89.56
65557;BME280;52200;53.490;14.376;2024-01-06T08:00:12;101108.56;;;-2.32;89.63
65557;BME280;52200;53.490;14.376;2024-01-06T08:02:41;101117.34;;;-2.43;89.47
65557;BME280;52200;53.490;14.376;2024-01-06T08:05:07;101119.81;;;-2.43;90.05
65557;BME280;52200;53.490;14.376;2024-01-06T08:07:33;101124.75;;;-2.19;89.68
65557;BME280;52200;53.490;14.376;2024-01-06T08:09:58;101121.75;;;-1.81;88.15
65557;BME280;52200;53.490;14.376;2024-01-06T08:12:24;101123.03;;;-1.94;87.71
65557;BME280;52200;53.490;14.376;2024-01-06T08:14:49;101131.06;;;-2.03;87.82
65557;BME280;52200;53.490;14.376;2024-01-06T08:17:14;101132.28;;;-1.90;88.08
65557;BME280;52200;53.490;14.376;2024-01-06T08:19:40;101134.63;;;-2.20;87.58
65557;BME280;52200;53.490;14.376;2024-01-06T08:22:07;101135.38;;;-2.23;88.44
65557;BME280;52200;53.490;14.376;2024-01-06T08:24:32;101140.56;;;-2.17;88.05
65557;BME280;52200;53.490;14.376;2024-01-06T08:26:58;101135.50;;;-2.20;88.99
65557;BME280;52200;53.490;14.376;2024-01-06T08:29:24;101134.59;;;-2.22;88.58
65557;BME280;52200;53.490;14.376;2024-01-06T08:31:50;101143.41;;;-2.32;88.33
65557;BME280;52200;53.490;14.376;2024-01-06T08:34:17;101140.84;;;-2.35;88.77
65557;BME280;52200;53.490;14.376;2024-01-06T08:36:43;101144.91;;;-2.37;88.81
65557;BME280;52200;53.490;14.376;2024-01-06T08:39:09;101145.88;;;-2.32;89.30
65557;BME280;52200;53.490;14.376;2024-01-06T08:41:34;101147.38;;;-2.37;89.48
65557;BME280;52200;53.490;14.376;2024-01-06T08:44:00;101152.00;;;-2.48;89.20
65557;BME280;52200;53.490;14.376;2024-01-06T08:46:25;101155.06;;;-2.31;89.92
65557;BME280;52200;53.490;14.376;2024-01-06T08:48:50;101155.16;;;-2.28;88.95
65557;BME280;52200;53.490;14.376;2024-01-06T08:51:16;101166.28;;;-2.18;89.36
65557;BME280;52200;53.490;14.376;2024-01-06T08:53:41;101174.44;;;-2.20;88.44
65557;BME280;52200;53.490;14.376;2024-01-06T08:56:08;101178.56;;;-2.22;88.39
65557;BME280;52200;53.490;14.376;2024-01-06T08:58:34;101171.72;;;-2.28;89.47
65557;BME280;52200;53.490;14.376;2024-01-06T09:00:59;101185.28;;;-2.44;89.36
65557;BME280;52200;53.490;14.376;2024-01-06T09:03:25;101183.47;;;-2.50;90.74
65557;BME280;52200;53.490;14.376;2024-01-06T09:05:56;101189.44;;;-2.45;90.68
65557;BME280;52200;53.490;14.376;2024-01-06T09:08:22;101181.59;;;-2.31;90.01
65557;BME280;52200;53.490;14.376;2024-01-06T09:10:49;101186.84;;;-2.22;89.74
65557;BME280;52200;53.490;14.376;2024-01-06T09:13:19;101193.72;;;-2.15;89.60
65557;BME280;52200;53.490;14.376;2024-01-06T09:15:47;101207.66;;;-2.20;89.09
65557;BME280;52200;53.490;14.376;2024-01-06T09:18:12;101207.00;;;-2.14;89.85
65557;BME280;52200;53.490;14.376;2024-01-06T09:20:37;101205.34;;;-2.15;89.34
65557;BME280;52200;53.490;14.376;2024-01-06T09:23:04;101206.75;;;-1.98;89.44
65557;BME280;52200;53.490;14.376;2024-01-06T09:25:29;101220.88;;;-1.97;89.50
65557;BME280;52200;53.490;14.376;2024-01-06T09:27:55;101222.22;;;-2.06;89.12
65557;BME280;52200;53.490;14.376;2024-01-06T09:30:20;101217.09;;;-2.11;88.36
65557;BME280;52200;53.490;14.376;2024-01-06T09:32:46;101215.38;;;-2.12;89.00
65557;BME280;52200;53.490;14.376;2024-01-06T09:35:11;101221.16;;;-1.87;88.63
65557;BME280;52200;53.490;14.376;2024-01-06T09:37:36;101236.09;;;-1.87;87.86
65557;BME280;52200;53.490;14.376;2024-01-06T09:40:02;101229.63;;;-1.82;87.31
65557;BME280;52200;53.490;14.376;2024-01-06T09:42:28;101238.00;;;-1.80;87.66
65557;BME280;52200;53.490;14.376;2024-01-06T09:44:53;101235.75;;;-1.72;86.95
65557;BME280;52200;53.490;14.376;2024-01-06T09:47:22;101247.25;;;-1.76;86.55
65557;BME280;52200;53.490;14.376;2024-01-06T09:49:52;101256.88;;;-1.87;86.58
65557;BME280;52200;53.490;14.376;2024-01-06T09:52:22;101256.03;;;-1.87;86.38
65557;BME280;52200;53.490;14.376;2024-01-06T09:54:52;101264.69;;;-1.76;86.23
65557;BME280;52200;53.490;14.376;2024-01-06T09:57:19;101263.66;;;-1.83;86.20
65557;BME280;52200;53.490;14.376;2024-01-06T09:59:45;101257.38;;;-1.71;86.32
65557;BME280;52200;53.490;14.376;2024-01-06T10:02:15;101258.13;;;-1.74;86.80
65557;BME280;52200;53.490;14.376;2024-01-06T10:04:41;101267.38;;;-1.96;86.76
65557;BME280;52200;53.490;14.376;2024-01-06T10:07:07;101263.50;;;-1.87;86.16
65557;BME280;52200;53.490;14.376;2024-01-06T10:09:33;101270.75;;;-1.93;86.34
65557;BME280;52200;53.490;14.376;2024-01-06T10:11:58;101270.47;;;-2.03;86.74
65557;BME280;52200;53.490;14.376;2024-01-06T10:14:25;101270.88;;;-1.90;86.76
65557;BME280;52200;53.490;14.376;2024-01-06T10:16:52;101280.91;;;-1.87;87.03
65557;BME280;52200;53.490;14.376;2024-01-06T10:19:17;101274.66;;;-1.76;86.59
65557;BME280;52200;53.490;14.376;2024-01-06T10:21:43;101276.19;;;-1.80;85.95
65557;BME280;52200;53.490;14.376;2024-01-06T10:24:09;101282.13;;;-1.76;86.62
65557;BME280;52200;53.490;14.376;2024-01-06T10:26:35;101276.75;;;-1.63;86.36
65557;BME280;52200;53.490;14.376;2024-01-06T10:29:01;101281.84;;;-1.59;85.82
65557;BME280;52200;53.490;14.376;2024-01-06T10:31:26;101278.13;;;-1.45;85.32
65557;BME280;52200;53.490;14.376;2024-01-06T10:33:52;101281.47;;;-1.44;85.22
65557;BME280;52200;53.490;14.376;2024-01-06T10:36:17;101281.09;;;-1.57;85.20
65557;BME280;52200;53.490;14.376;2024-01-06T10:38:44;101289.19;;;-1.37;84.63
65557;BME280;52200;53.490;14.376;2024-01-06T10:41:11;101287.91;;;-1.51;84.42
65557;BME280;52200;53.490;14.376;2024-01-06T10:57:09;101286.53;;;-1.41;84.64
65557;BME280;52200;53.490;14.376;2024-01-06T10:59:36;101280.41;;;-1.51;84.36
65557;BME280;52200;53.490;14.376;2024-01-06T11:02:02;101288.28;;;-1.65;84.51
65557;BME280;52200;53.490;14.376;2024-01-06T11:04:29;101290.97;;;-1.58;84.29
65557;BME280;52200;53.490;14.376;2024-01-06T11:06:59;101287.31;;;-1.17;84.29
65557;BME280;52200;53.490;14.376;2024-01-06T11:09:29;101286.84;;;-1.32;83.42
65557;BME280;52200;53.490;14.376;2024-01-06T11:12:00;101283.72;;;-1.52;82.94
65557;BME280;52200;53.490;14.376;2024-01-06T11:14:27;101282.41;;;-1.68;83.19
65557;BME280;52200;53.490;14.376;2024-01-06T11:16:58;101290.69;;;-1.68;82.98
65557;BME280;52200;53.490;14.376;2024-01-06T11:22:37;101298.19;;;-1.68;83.40
65557;BME280;52200;53.490;14.376;2024-01-06T11:25:24;101299.13;;;-1.64;83.53
65557;BME280;52200;53.490;14.376;2024-01-06T11:27:50;101301.16;;;-1.78;83.43
65557;BME280;52200;53.490;14.376;2024-01-06T11:30:27;101307.03;;;-1.50;82.91
65557;BME280;52200;53.490;14.376;2024-01-06T11:32:56;101297.56;;;-1.35;82.66
65557;BME280;52200;53.490;14.376;2024-01-06T11:35:26;101300.69;;;-1.15;82.39
65557;BME280;52200;53.490;14.376;2024-01-06T11:37:54;101286.84;;;-1.05;81.45
65557;BME280;52200;53.490;14.376;2024-01-06T11:43:08;101289.22;;;-1.08;80.54
65557;BME280;52200;53.490;14.376;2024-01-06T11:45:33;101285.00;;;-1.10;80.43
65557;BME280;52200;53.490;14.376;2024-01-06T11:48:06;101286.28;;;-1.23;80.97
65557;BME280;52200;53.490;14.376;2024-01-06T11:50:34;101275.81;;;-1.11;80.00
65557;BME280;52200;53.490;14.376;2024-01-06T11:53:02;101278.25;;;-0.86;79.40
65557;BME280;52200;53.490;14.376;2024-01-06T11:55:27;101280.72;;;-0.87;78.87
65557;BME280;52200;53.490;14.376;2024-01-06T11:57:55;101279.19;;;-1.11;79.16
65557;BME280;52200;53.490;14.376;2024-01-06T12:00:21;101282.28;;;-1.18;78.14
65557;BME280;52200;53.490;14.376;2024-01-06T12:02:47;101279.22;;;-1.09;78.82
65557;BME280;52200;53.490;14.376;2024-01-06T12:05:14;101287.19;;;-0.94;79.20
65557;BME280;52200;53.490;14.376;2024-01-06T12:07:41;101287.16;;;-0.65;77.68
65557;BME280;52200;53.490;14.376;2024-01-06T12:10:10;101286.53;;;-0.58;77.72
65557;BME280;52200;53.490;14.376;2024-01-06T12:12:37;101289.69;;;-0.63;77.16
65557;BME280;52200;53.490;14.376;2024-01-06T12:15:03;101296.75;;;-0.79;76.51
65557;BME280;52200;53.490;14.376;2024-01-06T12:17:30;101299.47;;;-0.71;76.40
65557;BME280;52200;53.490;14.376;2024-01-06T12:19:56;101296.56;;;-0.56;75.80
65557;BME280;52200;53.490;14.376;2024-01-06T12:22:22;101295.47;;;-0.36;75.81
65557;BME280;52200;53.490;14.376;2024-01-06T12:24:51;101287.94;;;-0.68;75.14
65557;BME280;52200;53.490;14.376;2024-01-06T12:27:17;101296.94;;;-0.73;75.94
65557;BME280;52200;53.490;14.376;2024-01-06T12:29:43;101294.69;;;-0.63;74.94
65557;BME280;52200;53.490;14.376;2024-01-06T12:32:10;101296.91;;;-0.44;75.80
65557;BME280;52200;53.490;14.376;2024-01-06T12:34:38;101286.38;;;-0.64;74.52
65557;BME280;52200;53.490;14.376;2024-01-06T12:37:05;101304.03;;;-0.56;75.60
65557;BME280;52200;53.490;14.376;2024-01-06T12:39:32;101299.31;;;-0.47;74.79
65557;BME280;52200;53.490;14.376;2024-01-06T12:41:58;101298.44;;;-0.49;74.33
65557;BME280;52200;53.490;14.376;2024-01-06T12:44:25;101310.03;;;-0.80;74.57
65557;BME280;52200;53.490;14.376;2024-01-06T12:46:51;101312.34;;;-0.86;74.26
65557;BME280;52200;53.490;14.376;2024-01-06T12:49:16;101312.59;;;-0.77;74.88
65557;BME280;52200;53.490;14.376;2024-01-06T12:51:42;101320.53;;;-0.90;74.53
65557;BME280;52200;53.490;14.376;2024-01-06T12:54:07;101320.06;;;-0.77;74.27